Main page
METAR-TAF:

METAR-TAF

Airports :

Athens International Airport

Athens, Greece

latitude: 37-56N, longitude: 023-56E, elevation: 94 m

Current weather observation

The report was made 25 minutes ago, at 06:20 UTC
Wind 12 kt from the North, varying between North/Northwest and North/Northeast
Temperature 29°C
Humidity 43%
Pressure 1011 hPa
Visibility 10 km or more
no clouds below 1500 m and no cumulonimbus

METAR: LGAV 180620Z 36012KT 330V030 CAVOK 29/15 Q1011 NOSIG

Time: 09:45 (06:45 UTC)

Forecast

The report was made 1 hour and 45 minutes ago, at 05:00 UTC
Forecast valid from 18 at 06 UTC to 19 at 06 UTC
Wind 10 kt from the North/Northwest
Visibility 10 km or more
Few clouds at a height of 3000 ft
Becoming
from 18 at 06 UTC to 18 at 08 UTC
Wind 15 kt from the North/Northeast with gusts up to 25 kt
Becoming
from 18 at 16 UTC to 18 at 18 UTC
Wind 12 kt from the North

TAF: LGAV 180500Z 1806/1906 34010KT 9999 FEW030 BECMG 1806/1808 02015G25KT BECMG 1816/1818 35012KT

Weather observations and forecasts of more than 4000 airports (METAR and TAF reports).

The available stations are represented by yellow and red dots on the map.

Hover mouse over dot to see the name of the station.

Then click to see weather observations and forecasts.

To change the map : click on the green buttons with a black cross to zoom in, on the green button with a dash to zoom out, or on the green arrows for adjacent maps.


METAR-TAF: